sensor_id;sensor_type;location;lat;lon;timestamp;P1;durP1;ratioP1;P2;durP2;ratioP2
35276;SDS011;21401;50.878;8.050;2022-11-15T00:00:25;15.93;;;8.80;;
35276;SDS011;21401;50.878;8.050;2022-11-15T00:02:54;15.40;;;9.50;;
35276;SDS011;21401;50.878;8.050;2022-11-15T00:05:20;15.32;;;9.55;;
35276;SDS011;21401;50.878;8.050;2022-11-15T00:07:46;11.68;;;9.18;;
35276;SDS011;21401;50.878;8.050;2022-11-15T00:10:14;13.35;;;8.98;;
35276;SDS011;21401;50.878;8.050;2022-11-15T00:12:39;15.30;;;9.40;;
35276;SDS011;21401;50.878;8.050;2022-11-15T00:15:07;15.90;;;9.40;;
35276;SDS011;21401;50.878;8.050;2022-11-15T00:17:34;17.63;;;10.60;;
35276;SDS011;21401;50.878;8.050;2022-11-15T00:20:00;14.27;;;9.65;;
35276;SDS011;21401;50.878;8.050;2022-11-15T00:22:30;13.07;;;8.55;;
35276;SDS011;21401;50.878;8.050;2022-11-15T00:24:57;11.45;;;8.27;;
35276;SDS011;21401;50.878;8.050;2022-11-15T00:27:23;18.30;;;9.27;;
35276;SDS011;21401;50.878;8.050;2022-11-15T00:29:51;17.42;;;9.63;;
35276;SDS011;21401;50.878;8.050;2022-11-15T00:32:16;16.15;;;9.30;;
35276;SDS011;21401;50.878;8.050;2022-11-15T00:34:47;15.40;;;9.18;;
35276;SDS011;21401;50.878;8.050;2022-11-15T00:37:12;12.50;;;9.73;;
35276;SDS011;21401;50.878;8.050;2022-11-15T00:39:40;16.95;;;9.82;;
35276;SDS011;21401;50.878;8.050;2022-11-15T00:42:06;13.48;;;9.32;;
35276;SDS011;21401;50.878;8.050;2022-11-15T00:44:32;12.60;;;9.15;;
35276;SDS011;21401;50.878;8.050;2022-11-15T00:47:10;17.17;;;9.45;;
35276;SDS011;21401;50.878;8.050;2022-11-15T00:49:35;14.18;;;9.27;;
35276;SDS011;21401;50.878;8.050;2022-11-15T00:52:01;12.27;;;8.55;;
35276;SDS011;21401;50.878;8.050;2022-11-15T00:54:27;13.82;;;7.60;;
35276;SDS011;21401;50.878;8.050;2022-11-15T00:56:52;11.43;;;8.48;;
35276;SDS011;21401;50.878;8.050;2022-11-15T00:59:18;16.45;;;8.45;;
35276;SDS011;21401;50.878;8.050;2022-11-15T01:01:44;12.30;;;7.90;;
35276;SDS011;21401;50.878;8.050;2022-11-15T01:04:10;10.85;;;7.88;;
35276;SDS011;21401;50.878;8.050;2022-11-15T01:06:36;15.25;;;8.70;;
35276;SDS011;21401;50.878;8.050;2022-11-15T01:09:02;10.63;;;7.68;;
35276;SDS011;21401;50.878;8.050;2022-11-15T01:11:27;15.55;;;7.43;;
35276;SDS011;21401;50.878;8.050;2022-11-15T01:13:55;12.27;;;7.70;;
35276;SDS011;21401;50.878;8.050;2022-11-15T01:16:21;14.32;;;7.85;;
35276;SDS011;21401;50.878;8.050;2022-11-15T01:18:51;10.25;;;7.82;;
35276;SDS011;21401;50.878;8.050;2022-11-15T01:21:18;12.23;;;7.63;;
35276;SDS011;21401;50.878;8.050;2022-11-15T01:23:45;10.45;;;7.18;;
35276;SDS011;21401;50.878;8.050;2022-11-15T01:26:13;14.63;;;8.25;;
35276;SDS011;21401;50.878;8.050;2022-11-15T01:28:40;9.85;;;7.05;;
35276;SDS011;21401;50.878;8.050;2022-11-15T01:31:13;10.52;;;7.60;;
35276;SDS011;21401;50.878;8.050;2022-11-15T01:33:41;9.90;;;6.70;;
35276;SDS011;21401;50.878;8.050;2022-11-15T01:36:07;10.52;;;7.07;;
35276;SDS011;21401;50.878;8.050;2022-11-15T01:38:36;12.23;;;7.25;;
35276;SDS011;21401;50.878;8.050;2022-11-15T01:41:02;10.10;;;6.65;;
35276;SDS011;21401;50.878;8.050;2022-11-15T01:43:36;11.25;;;6.95;;
35276;SDS011;21401;50.878;8.050;2022-11-15T01:46:04;10.63;;;6.97;;
35276;SDS011;21401;50.878;8.050;2022-11-15T01:48:40;11.82;;;6.47;;
35276;SDS011;21401;50.878;8.050;2022-11-15T01:51:07;9.18;;;7.10;;
35276;SDS011;21401;50.878;8.050;2022-11-15T01:53:37;10.48;;;6.70;;
35276;SDS011;21401;50.878;8.050;2022-11-15T01:56:05;12.95;;;6.65;;
35276;SDS011;21401;50.878;8.050;2022-11-15T01:58:37;12.23;;;6.82;;
35276;SDS011;21401;50.878;8.050;2022-11-15T02:01:03;9.10;;;6.43;;
35276;SDS011;21401;50.878;8.050;2022-11-15T02:03:39;11.32;;;8.23;;
35276;SDS011;21401;50.878;8.050;2022-11-15T02:06:13;13.70;;;8.50;;
35276;SDS011;21401;50.878;8.050;2022-11-15T02:08:39;12.07;;;7.95;;
35276;SDS011;21401;50.878;8.050;2022-11-15T02:11:09;16.38;;;8.60;;
35276;SDS011;21401;50.878;8.050;2022-11-15T02:13:37;19.50;;;9.65;;
35276;SDS011;21401;50.878;8.050;2022-11-15T02:16:13;14.65;;;9.30;;
35276;SDS011;21401;50.878;8.050;2022-11-15T02:24:52;18.63;;;9.68;;
35276;SDS011;21401;50.878;8.050;2022-11-15T02:33:00;21.00;;;11.55;;
35276;SDS011;21401;50.878;8.050;2022-11-15T02:38:46;14.23;;;9.70;;
35276;SDS011;21401;50.878;8.050;2022-11-15T02:41:24;19.65;;;11.32;;
35276;SDS011;21401;50.878;8.050;2022-11-15T02:43:59;18.30;;;10.45;;
35276;SDS011;21401;50.878;8.050;2022-11-15T02:46:33;17.00;;;10.10;;
35276;SDS011;21401;50.878;8.050;2022-11-15T02:49:21;14.40;;;10.55;;
35276;SDS011;21401;50.878;8.050;2022-11-15T02:51:50;19.88;;;10.30;;
35276;SDS011;21401;50.878;8.050;2022-11-15T02:54:21;18.42;;;10.77;;
35276;SDS011;21401;50.878;8.050;2022-11-15T02:56:48;14.57;;;10.00;;
35276;SDS011;21401;50.878;8.050;2022-11-15T03:04:44;18.30;;;10.82;;
35276;SDS011;21401;50.878;8.050;2022-11-15T03:07:32;17.92;;;11.25;;
35276;SDS011;21401;50.878;8.050;2022-11-15T03:10:21;17.20;;;9.80;;
35276;SDS011;21401;50.878;8.050;2022-11-15T03:13:27;15.57;;;10.18;;
35276;SDS011;21401;50.878;8.050;2022-11-15T03:16:16;13.48;;;9.10;;
35276;SDS011;21401;50.878;8.050;2022-11-15T03:18:51;13.15;;;8.52;;
35276;SDS011;21401;50.878;8.050;2022-11-15T03:21:23;13.13;;;9.38;;
35276;SDS011;21401;50.878;8.050;2022-11-15T03:23:49;14.90;;;8.95;;
35276;SDS011;21401;50.878;8.050;2022-11-15T03:26:18;13.02;;;8.32;;
35276;SDS011;21401;50.878;8.050;2022-11-15T03:28:54;11.95;;;8.40;;
35276;SDS011;21401;50.878;8.050;2022-11-15T03:31:28;12.60;;;7.70;;
35276;SDS011;21401;50.878;8.050;2022-11-15T03:34:17;9.77;;;6.70;;
35276;SDS011;21401;50.878;8.050;2022-11-15T03:36:53;12.18;;;8.13;;
35276;SDS011;21401;50.878;8.050;2022-11-15T03:39:19;12.40;;;8.50;;
35276;SDS011;21401;50.878;8.050;2022-11-15T03:47:27;10.07;;;7.72;;
35276;SDS011;21401;50.878;8.050;2022-11-15T03:50:40;12.90;;;7.55;;
35276;SDS011;21401;50.878;8.050;2022-11-15T03:52:48;13.18;;;7.60;;
35276;SDS011;21401;50.878;8.050;2022-11-15T03:55:19;14.07;;;7.45;;
35276;SDS011;21401;50.878;8.050;2022-11-15T03:57:46;15.13;;;7.82;;
35276;SDS011;21401;50.878;8.050;2022-11-15T04:00:16;11.82;;;7.65;;
35276;SDS011;21401;50.878;8.050;2022-11-15T04:02:42;14.98;;;7.25;;
35276;SDS011;21401;50.878;8.050;2022-11-15T04:05:09;10.52;;;6.80;;
35276;SDS011;21401;50.878;8.050;2022-11-15T04:07:37;11.38;;;7.78;;
35276;SDS011;21401;50.878;8.050;2022-11-15T04:10:03;8.10;;;6.60;;
35276;SDS011;21401;50.878;8.050;2022-11-15T04:12:32;13.05;;;8.02;;
35276;SDS011;21401;50.878;8.050;2022-11-15T04:15:04;11.38;;;7.60;;
35276;SDS011;21401;50.878;8.050;2022-11-15T04:17:39;12.25;;;8.25;;
35276;SDS011;21401;50.878;8.050;2022-11-15T04:20:08;9.98;;;7.13;;
35276;SDS011;21401;50.878;8.050;2022-11-15T04:23:03;13.57;;;7.78;;
35276;SDS011;21401;50.878;8.050;2022-11-15T04:25:50;12.63;;;7.20;;
35276;SDS011;21401;50.878;8.050;2022-11-15T04:28:17;10.13;;;6.82;;
35276;SDS011;21401;50.878;8.050;2022-11-15T04:30:46;9.00;;;6.93;;
35276;SDS011;21401;50.878;8.050;2022-11-15T04:33:11;9.38;;;6.65;;
35276;SDS011;21401;50.878;8.050;2022-11-15T04:35:37;9.73;;;6.90;;
35276;SDS011;21401;50.878;8.050;2022-11-15T04:38:03;11.05;;;7.18;;
35276;SDS011;21401;50.878;8.050;2022-11-15T04:40:33;12.18;;;7.43;;
35276;SDS011;21401;50.878;8.050;2022-11-15T04:43:01;9.75;;;6.28;;
35276;SDS011;21401;50.878;8.050;2022-11-15T04:45:28;10.43;;;7.15;;
35276;SDS011;21401;50.878;8.050;2022-11-15T04:47:54;9.77;;;6.53;;
35276;SDS011;21401;50.878;8.050;2022-11-15T04:50:19;10.98;;;7.30;;
35276;SDS011;21401;50.878;8.050;2022-11-15T04:52:52;14.20;;;8.00;;
35276;SDS011;21401;50.878;8.050;2022-11-15T04:55:18;11.27;;;7.18;;
35276;SDS011;21401;50.878;8.050;2022-11-15T04:57:44;11.90;;;7.55;;
35276;SDS011;21401;50.878;8.050;2022-11-15T05:00:11;9.48;;;6.60;;
35276;SDS011;21401;50.878;8.050;2022-11-15T05:02:38;8.90;;;6.57;;
35276;SDS011;21401;50.878;8.050;2022-11-15T05:05:25;11.63;;;6.63;;
35276;SDS011;21401;50.878;8.050;2022-11-15T05:07:50;12.23;;;6.88;;
35276;SDS011;21401;50.878;8.050;2022-11-15T05:10:16;8.95;;;6.07;;
35276;SDS011;21401;50.878;8.050;2022-11-15T05:12:46;10.13;;;6.70;;
35276;SDS011;21401;50.878;8.050;2022-11-15T05:15:11;10.60;;;6.78;;
35276;SDS011;21401;50.878;8.050;2022-11-15T05:17:39;11.38;;;6.57;;
35276;SDS011;21401;50.878;8.050;2022-11-15T05:20:05;12.25;;;7.10;;
35276;SDS011;21401;50.878;8.050;2022-11-15T05:22:31;9.52;;;6.40;;
35276;SDS011;21401;50.878;8.050;2022-11-15T05:24:56;10.00;;;6.97;;
35276;SDS011;21401;50.878;8.050;2022-11-15T05:27:24;11.10;;;6.53;;
35276;SDS011;21401;50.878;8.050;2022-11-15T05:29:50;8.88;;;6.32;;
35276;SDS011;21401;50.878;8.050;2022-11-15T05:32:15;11.45;;;6.28;;
35276;SDS011;21401;50.878;8.050;2022-11-15T05:34:42;9.82;;;6.03;;
35276;SDS011;21401;50.878;8.050;2022-11-15T05:37:08;9.20;;;6.22;;
35276;SDS011;21401;50.878;8.050;2022-11-15T05:39:34;8.88;;;5.55;;
35276;SDS011;21401;50.878;8.050;2022-11-15T05:42:01;7.28;;;5.28;;
35276;SDS011;21401;50.878;8.050;2022-11-15T05:44:30;6.88;;;4.38;;
35276;SDS011;21401;50.878;8.050;2022-11-15T05:46:59;6.97;;;5.18;;
35276;SDS011;21401;50.878;8.050;2022-11-15T05:49:27;6.43;;;4.57;;
35276;SDS011;21401;50.878;8.050;2022-11-15T05:51:56;6.97;;;4.85;;
35276;SDS011;21401;50.878;8.050;2022-11-15T05:54:22;7.45;;;4.78;;
35276;SDS011;21401;50.878;8.050;2022-11-15T05:56:52;5.63;;;4.10;;
35276;SDS011;21401;50.878;8.050;2022-11-15T05:59:18;8.27;;;5.20;;
35276;SDS011;21401;50.878;8.050;2022-11-15T06:01:44;7.20;;;5.32;;
35276;SDS011;21401;50.878;8.050;2022-11-15T06:04:10;9.30;;;4.95;;
35276;SDS011;21401;50.878;8.050;2022-11-15T06:06:35;8.55;;;5.32;;
35276;SDS011;21401;50.878;8.050;2022-11-15T06:09:01;7.45;;;5.18;;
35276;SDS011;21401;50.878;8.050;2022-11-15T06:11:27;11.18;;;6.05;;
35276;SDS011;21401;50.878;8.050;2022-11-15T06:13:52;6.75;;;4.68;;
35276;SDS011;21401;50.878;8.050;2022-11-15T06:16:19;10.00;;;5.53;;
35276;SDS011;21401;50.878;8.050;2022-11-15T06:18:47;8.73;;;4.95;;
35276;SDS011;21401;50.878;8.050;2022-11-15T06:21:15;10.23;;;5.10;;
35276;SDS011;21401;50.878;8.050;2022-11-15T06:23:42;7.43;;;5.70;;
35276;SDS011;21401;50.878;8.050;2022-11-15T06:26:08;9.98;;;5.30;;
35276;SDS011;21401;50.878;8.050;2022-11-15T06:28:33;9.75;;;5.30;;
35276;SDS011;21401;50.878;8.050;2022-11-15T06:31:03;8.93;;;5.05;;
35276;SDS011;21401;50.878;8.050;2022-11-15T06:33:36;9.32;;;5.15;;
35276;SDS011;21401;50.878;8.050;2022-11-15T06:36:06;9.45;;;5.30;;
35276;SDS011;21401;50.878;8.050;2022-11-15T06:38:38;7.75;;;4.35;;
35276;SDS011;21401;50.878;8.050;2022-11-15T06:41:07;6.07;;;4.28;;
35276;SDS011;21401;50.878;8.050;2022-11-15T06:43:35;5.18;;;4.18;;
35276;SDS011;21401;50.878;8.050;2022-11-15T06:46:03;8.23;;;4.40;;
35276;SDS011;21401;50.878;8.050;2022-11-15T06:48:30;5.38;;;4.03;;
35276;SDS011;21401;50.878;8.050;2022-11-15T06:50:59;6.57;;;4.10;;
35276;SDS011;21401;50.878;8.050;2022-11-15T06:53:26;8.98;;;4.65;;
35276;SDS011;21401;50.878;8.050;2022-11-15T06:55:53;7.65;;;3.78;;
35276;SDS011;21401;50.878;8.050;2022-11-15T06:58:20;4.53;;;3.38;;
35276;SDS011;21401;50.878;8.050;2022-11-15T07:00:46;5.22;;;3.30;;
35276;SDS011;21401;50.878;8.050;2022-11-15T07:03:16;4.30;;;3.22;;
35276;SDS011;21401;50.878;8.050;2022-11-15T07:05:49;7.95;;;5.15;;
35276;SDS011;21401;50.878;8.050;2022-11-15T07:08:16;9.00;;;6.72;;
35276;SDS011;21401;50.878;8.050;2022-11-15T07:10:41;10.40;;;6.00;;
35276;SDS011;21401;50.878;8.050;2022-11-15T07:13:07;6.70;;;4.50;;
35276;SDS011;21401;50.878;8.050;2022-11-15T07:15:32;5.75;;;3.65;;
35276;SDS011;21401;50.878;8.050;2022-11-15T07:18:00;6.32;;;3.22;;
35276;SDS011;21401;50.878;8.050;2022-11-15T07:20:29;8.80;;;3.97;;
35276;SDS011;21401;50.878;8.050;2022-11-15T07:23:04;8.80;;;4.72;;
35276;SDS011;21401;50.878;8.050;2022-11-15T07:25:35;6.97;;;3.92;;
35276;SDS011;21401;50.878;8.050;2022-11-15T07:28:01;6.63;;;4.57;;
35276;SDS011;21401;50.878;8.050;2022-11-15T07:30:40;5.75;;;4.00;;
35276;SDS011;21401;50.878;8.050;2022-11-15T07:33:14;4.63;;;3.50;;
35276;SDS011;21401;50.878;8.050;2022-11-15T07:35:40;6.07;;;3.63;;
35276;SDS011;21401;50.878;8.050;2022-11-15T07:38:05;4.28;;;3.05;;
35276;SDS011;21401;50.878;8.050;2022-11-15T07:40:31;6.47;;;3.45;;
35276;SDS011;21401;50.878;8.050;2022-11-15T07:43:03;4.43;;;2.97;;
35276;SDS011;21401;50.878;8.050;2022-11-15T07:45:32;4.82;;;2.85;;
35276;SDS011;21401;50.878;8.050;2022-11-15T07:48:01;5.20;;;3.22;;
35276;SDS011;21401;50.878;8.050;2022-11-15T07:50:27;4.25;;;3.25;;
35276;SDS011;21401;50.878;8.050;2022-11-15T07:53:08;4.65;;;3.40;;
35276;SDS011;21401;50.878;8.050;2022-11-15T07:55:49;6.13;;;3.42;;
35276;SDS011;21401;50.878;8.050;2022-11-15T07:58:15;7.00;;;3.50;;
35276;SDS011;21401;50.878;8.050;2022-11-15T08:00:40;5.78;;;3.33;;
35276;SDS011;21401;50.878;8.050;2022-11-15T08:03:07;6.38;;;3.72;;
35276;SDS011;21401;50.878;8.050;2022-11-15T08:05:35;7.85;;;3.80;;
35276;SDS011;21401;50.878;8.050;2022-11-15T08:08:02;5.53;;;3.45;;
35276;SDS011;21401;50.878;8.050;2022-11-15T08:10:29;4.57;;;3.47;;
35276;SDS011;21401;50.878;8.050;2022-11-15T08:12:59;5.03;;;3.50;;
35276;SDS011;21401;50.878;8.050;2022-11-15T08:15:26;5.25;;;3.30;;
35276;SDS011;21401;50.878;8.050;2022-11-15T08:17:59;6.80;;;4.47;;
35276;SDS011;21401;50.878;8.050;2022-11-15T08:20:27;5.28;;;4.15;;
35276;SDS011;21401;50.878;8.050;2022-11-15T08:22:59;9.35;;;6.32;;
35276;SDS011;21401;50.878;8.050;2022-11-15T08:25:28;5.93;;;5.20;;
35276;SDS011;21401;50.878;8.050;2022-11-15T08:28:00;5.07;;;3.75;;
35276;SDS011;21401;50.878;8.050;2022-11-15T08:30:28;5.97;;;3.30;;
35276;SDS011;21401;50.878;8.050;2022-11-15T08:32:56;6.68;;;3.50;;
35276;SDS011;21401;50.878;8.050;2022-11-15T08:35:23;5.38;;;3.97;;
35276;SDS011;21401;50.878;8.050;2022-11-15T08:37:49;9.43;;;3.92;;
35276;SDS011;21401;50.878;8.050;2022-11-15T08:40:17;4.90;;;3.53;;
35276;SDS011;21401;50.878;8.050;2022-11-15T08:42:45;5.28;;;2.92;;
35276;SDS011;21401;50.878;8.050;2022-11-15T08:45:11;5.97;;;2.35;;
35276;SDS011;21401;50.878;8.050;2022-11-15T08:47:37;5.50;;;2.28;;
35276;SDS011;21401;50.878;8.050;2022-11-15T08:50:03;4.47;;;2.30;;
35276;SDS011;21401;50.878;8.050;2022-11-15T08:52:28;5.05;;;2.67;;
35276;SDS011;21401;50.878;8.050;2022-11-15T08:54:54;3.95;;;2.25;;
35276;SDS011;21401;50.878;8.050;2022-11-15T08:57:20;3.28;;;2.08;;
35276;SDS011;21401;50.878;8.050;2022-11-15T08:59:45;4.13;;;1.73;;
35276;SDS011;21401;50.878;8.050;2022-11-15T09:02:12;3.38;;;2.15;;
35276;SDS011;21401;50.878;8.050;2022-11-15T09:04:43;3.22;;;2.40;;
35276;SDS011;21401;50.878;8.050;2022-11-15T09:07:10;5.80;;;2.13;;
35276;SDS011;21401;50.878;8.050;2022-11-15T09:09:36;2.97;;;2.17;;
35276;SDS011;21401;50.878;8.050;2022-11-15T09:12:02;5.13;;;1.92;;
35276;SDS011;21401;50.878;8.050;2022-11-15T09:14:31;4.35;;;2.15;;
35276;SDS011;21401;50.878;8.050;2022-11-15T09:17:00;3.92;;;2.47;;
35276;SDS011;21401;50.878;8.050;2022-11-15T09:19:26;5.10;;;2.40;;
35276;SDS011;21401;50.878;8.050;2022-11-15T09:21:52;5.90;;;2.60;;
35276;SDS011;21401;50.878;8.050;2022-11-15T09:24:18;3.90;;;2.30;;
35276;SDS011;21401;50.878;8.050;2022-11-15T09:26:43;10.63;;;2.50;;
35276;SDS011;21401;50.878;8.050;2022-11-15T09:29:09;3.40;;;2.33;;
35276;SDS011;21401;50.878;8.050;2022-11-15T09:31:37;5.63;;;2.38;;
35276;SDS011;21401;50.878;8.050;2022-11-15T09:34:03;3.67;;;2.35;;
35276;SDS011;21401;50.878;8.050;2022-11-15T09:36:30;4.75;;;2.53;;
35276;SDS011;21401;50.878;8.050;2022-11-15T09:38:57;4.15;;;2.10;;
35276;SDS011;21401;50.878;8.050;2022-11-15T09:41:36;3.67;;;2.22;;
35276;SDS011;21401;50.878;8.050;2022-11-15T09:46:44;5.47;;;2.90;;
35276;SDS011;21401;50.878;8.050;2022-11-15T09:49:22;3.60;;;2.42;;
35276;SDS011;21401;50.878;8.050;2022-11-15T09:51:49;3.60;;;2.20;;
35276;SDS011;21401;50.878;8.050;2022-11-15T10:05:16;4.22;;;2.47;;
35276;SDS011;21401;50.878;8.050;2022-11-15T10:12:52;3.03;;;1.83;;
35276;SDS011;21401;50.878;8.050;2022-11-15T10:15:20;5.78;;;2.58;;
35276;SDS011;21401;50.878;8.050;2022-11-15T10:20:29;3.22;;;2.00;;
35276;SDS011;21401;50.878;8.050;2022-11-15T10:22:56;4.28;;;2.03;;
35276;SDS011;21401;50.878;8.050;2022-11-15T10:25:31;4.82;;;1.70;;
35276;SDS011;21401;50.878;8.050;2022-11-15T10:31:22;6.15;;;2.03;;
35276;SDS011;21401;50.878;8.050;2022-11-15T10:33:58;3.13;;;1.80;;
35276;SDS011;21401;50.878;8.050;2022-11-15T10:36:37;14.70;;;4.82;;
35276;SDS011;21401;50.878;8.050;2022-11-15T10:39:05;2.75;;;1.60;;
35276;SDS011;21401;50.878;8.050;2022-11-15T10:41:37;4.72;;;1.83;;
35276;SDS011;21401;50.878;8.050;2022-11-15T10:46:32;5.45;;;1.90;;
35276;SDS011;21401;50.878;8.050;2022-11-15T10:49:19;2.83;;;1.65;;
35276;SDS011;21401;50.878;8.050;2022-11-15T10:51:59;4.60;;;2.10;;
35276;SDS011;21401;50.878;8.050;2022-11-15T10:54:50;3.83;;;2.35;;
35276;SDS011;21401;50.878;8.050;2022-11-15T10:57:30;5.22;;;2.25;;
35276;SDS011;21401;50.878;8.050;2022-11-15T11:00:06;5.05;;;1.52;;
35276;SDS011;21401;50.878;8.050;2022-11-15T11:05:26;9.60;;;2.75;;
35276;SDS011;21401;50.878;8.050;2022-11-15T11:07:59;12.60;;;4.00;;
35276;SDS011;21401;50.878;8.050;2022-11-15T11:10:28;5.63;;;2.60;;
35276;SDS011;21401;50.878;8.050;2022-11-15T11:12:54;5.38;;;2.05;;
35276;SDS011;21401;50.878;8.050;2022-11-15T11:15:20;3.60;;;1.85;;
35276;SDS011;21401;50.878;8.050;2022-11-15T11:21:34;6.13;;;1.88;;
35276;SDS011;21401;50.878;8.050;2022-11-15T11:24:31;2.45;;;1.70;;
35276;SDS011;21401;50.878;8.050;2022-11-15T11:30:06;3.30;;;1.10;;
35276;SDS011;21401;50.878;8.050;2022-11-15T11:37:51;1.92;;;1.05;;
35276;SDS011;21401;50.878;8.050;2022-11-15T11:43:02;7.55;;;5.30;;
35276;SDS011;21401;50.878;8.050;2022-11-15T11:52:14;7.45;;;1.65;;
35276;SDS011;21401;50.878;8.050;2022-11-15T12:00:24;3.10;;;1.13;;
35276;SDS011;21401;50.878;8.050;2022-11-15T12:08:27;4.68;;;1.17;;
35276;SDS011;21401;50.878;8.050;2022-11-15T12:11:07;5.32;;;1.25;;
35276;SDS011;21401;50.878;8.050;2022-11-15T12:13:55;3.42;;;1.08;;
35276;SDS011;21401;50.878;8.050;2022-11-15T12:16:27;1.67;;;0.80;;
35276;SDS011;21401;50.878;8.050;2022-11-15T12:18:56;5.60;;;1.00;;
35276;SDS011;21401;50.878;8.050;2022-11-15T12:23:58;3.30;;;1.20;;
35276;SDS011;21401;50.878;8.050;2022-11-15T12:29:03;4.07;;;0.90;;
35276;SDS011;21401;50.878;8.050;2022-11-15T12:31:41;2.38;;;1.08;;
35276;SDS011;21401;50.878;8.050;2022-11-15T12:36:45;2.00;;;0.90;;
35276;SDS011;21401;50.878;8.050;2022-11-15T12:39:11;3.83;;;1.55;;
35276;SDS011;21401;50.878;8.050;2022-11-15T12:41:42;6.28;;;1.70;;
35276;SDS011;21401;50.878;8.050;2022-11-15T12:44:13;4.72;;;0.95;;
35276;SDS011;21401;50.878;8.050;2022-11-15T13:02:24;2.67;;;1.60;;
35276;SDS011;21401;50.878;8.050;2022-11-15T13:04:52;40.47;;;18.02;;
35276;SDS011;21401;50.878;8.050;2022-11-15T13:10:46;37.60;;;17.15;;
35276;SDS011;21401;50.878;8.050;2022-11-15T13:13:00;24.27;;;10.93;;
35276;SDS011;21401;50.878;8.050;2022-11-15T13:15:36;65.90;;;27.38;;
35276;SDS011;21401;50.878;8.050;2022-11-15T13:21:05;5.07;;;1.90;;
35276;SDS011;21401;50.878;8.050;2022-11-15T13:24:09;8.15;;;1.65;;
35276;SDS011;21401;50.878;8.050;2022-11-15T13:26:40;8.02;;;5.88;;
35276;SDS011;21401;50.878;8.050;2022-11-15T13:29:25;3.95;;;1.15;;
35276;SDS011;21401;50.878;8.050;2022-11-15T13:31:50;22.40;;;10.98;;
35276;SDS011;21401;50.878;8.050;2022-11-15T13:34:23;14.40;;;7.03;;
35276;SDS011;21401;50.878;8.050;2022-11-15T13:36:54;6.35;;;2.70;;
35276;SDS011;21401;50.878;8.050;2022-11-15T13:41:52;1.95;;;1.10;;
35276;SDS011;21401;50.878;8.050;2022-11-15T13:44:19;5.18;;;2.35;;
35276;SDS011;21401;50.878;8.050;2022-11-15T13:46:46;4.50;;;2.10;;
35276;SDS011;21401;50.878;8.050;2022-11-15T13:49:12;3.80;;;1.40;;
35276;SDS011;21401;50.878;8.050;2022-11-15T13:56:38;5.20;;;1.20;;
35276;SDS011;21401;50.878;8.050;2022-11-15T13:59:09;6.03;;;1.30;;
35276;SDS011;21401;50.878;8.050;2022-11-15T14:01:39;11.93;;;3.97;;
35276;SDS011;21401;50.878;8.050;2022-11-15T14:04:10;3.67;;;2.08;;
35276;SDS011;21401;50.878;8.050;2022-11-15T14:06:44;2.13;;;1.17;;
35276;SDS011;21401;50.878;8.050;2022-11-15T14:11:55;3.05;;;1.45;;
35276;SDS011;21401;50.878;8.050;2022-11-15T14:14:25;5.70;;;1.70;;
35276;SDS011;21401;50.878;8.050;2022-11-15T14:16:53;7.18;;;1.98;;
35276;SDS011;21401;50.878;8.050;2022-11-15T14:22:29;4.57;;;1.80;;
35276;SDS011;21401;50.878;8.050;2022-11-15T14:24:36;4.18;;;1.30;;
35276;SDS011;21401;50.878;8.050;2022-11-15T14:27:17;2.30;;;1.35;;
35276;SDS011;21401;50.878;8.050;2022-11-15T14:29:51;3.67;;;1.67;;
35276;SDS011;21401;50.878;8.050;2022-11-15T14:32:18;3.50;;;1.40;;
35276;SDS011;21401;50.878;8.050;2022-11-15T14:34:46;2.50;;;1.17;;
35276;SDS011;21401;50.878;8.050;2022-11-15T14:37:16;3.53;;;1.60;;
35276;SDS011;21401;50.878;8.050;2022-11-15T14:39:48;2.53;;;1.25;;
35276;SDS011;21401;50.878;8.050;2022-11-15T14:42:14;3.80;;;1.75;;
35276;SDS011;21401;50.878;8.050;2022-11-15T14:44:40;3.75;;;1.40;;
35276;SDS011;21401;50.878;8.050;2022-11-15T14:47:06;3.83;;;1.25;;
35276;SDS011;21401;50.878;8.050;2022-11-15T14:49:32;4.18;;;2.00;;
35276;SDS011;21401;50.878;8.050;2022-11-15T14:51:57;9.38;;;1.85;;
35276;SDS011;21401;50.878;8.050;2022-11-15T14:54:23;4.72;;;1.80;;
35276;SDS011;21401;50.878;8.050;2022-11-15T14:56:49;4.18;;;1.88;;
35276;SDS011;21401;50.878;8.050;2022-11-15T14:59:14;2.63;;;1.33;;
35276;SDS011;21401;50.878;8.050;2022-11-15T15:01:40;3.42;;;1.30;;
35276;SDS011;21401;50.878;8.050;2022-11-15T15:04:05;6.03;;;1.30;;
35276;SDS011;21401;50.878;8.050;2022-11-15T15:06:31;3.58;;;1.67;;
35276;SDS011;21401;50.878;8.050;2022-11-15T15:08:57;2.00;;;1.30;;
35276;SDS011;21401;50.878;8.050;2022-11-15T15:11:23;5.25;;;1.45;;
35276;SDS011;21401;50.878;8.050;2022-11-15T15:13:51;5.15;;;2.00;;
35276;SDS011;21401;50.878;8.050;2022-11-15T15:16:18;4.32;;;1.60;;
35276;SDS011;21401;50.878;8.050;2022-11-15T15:18:46;2.92;;;1.80;;
35276;SDS011;21401;50.878;8.050;2022-11-15T15:21:20;3.42;;;1.70;;
35276;SDS011;21401;50.878;8.050;2022-11-15T15:23:52;2.67;;;1.70;;
35276;SDS011;21401;50.878;8.050;2022-11-15T15:26:19;5.55;;;2.28;;
35276;SDS011;21401;50.878;8.050;2022-11-15T15:28:47;6.70;;;1.85;;
35276;SDS011;21401;50.878;8.050;2022-11-15T15:31:16;13.32;;;4.25;;
35276;SDS011;21401;50.878;8.050;2022-11-15T15:33:43;6.55;;;2.20;;
35276;SDS011;21401;50.878;8.050;2022-11-15T15:36:13;12.82;;;6.13;;
35276;SDS011;21401;50.878;8.050;2022-11-15T15:38:41;4.60;;;2.47;;
35276;SDS011;21401;50.878;8.050;2022-11-15T15:41:13;4.85;;;3.60;;
35276;SDS011;21401;50.878;8.050;2022-11-15T15:43:42;4.10;;;2.00;;
35276;SDS011;21401;50.878;8.050;2022-11-15T15:46:09;9.73;;;5.63;;
35276;SDS011;21401;50.878;8.050;2022-11-15T15:48:37;6.60;;;2.97;;
35276;SDS011;21401;50.878;8.050;2022-11-15T15:51:07;4.55;;;3.00;;
35276;SDS011;21401;50.878;8.050;2022-11-15T15:53:33;3.67;;;2.55;;
35276;SDS011;21401;50.878;8.050;2022-11-15T15:55:59;3.03;;;2.13;;
35276;SDS011;21401;50.878;8.050;2022-11-15T15:58:24;6.10;;;3.75;;
35276;SDS011;21401;50.878;8.050;2022-11-15T16:00:50;7.15;;;2.78;;
35276;SDS011;21401;50.878;8.050;2022-11-15T16:03:16;6.15;;;3.45;;
35276;SDS011;21401;50.878;8.050;2022-11-15T16:05:41;8.00;;;3.00;;
35276;SDS011;21401;50.878;8.050;2022-11-15T16:08:20;7.07;;;4.10;;
35276;SDS011;21401;50.878;8.050;2022-11-15T16:10:47;4.25;;;3.40;;
35276;SDS011;21401;50.878;8.050;2022-11-15T16:13:13;6.30;;;4.45;;
35276;SDS011;21401;50.878;8.050;2022-11-15T16:15:39;8.63;;;4.15;;
35276;SDS011;21401;50.878;8.050;2022-11-15T16:18:05;9.70;;;4.43;;
35276;SDS011;21401;50.878;8.050;2022-11-15T16:23:08;6.70;;;4.90;;
35276;SDS011;21401;50.878;8.050;2022-11-15T16:28:11;6.65;;;4.50;;
35276;SDS011;21401;50.878;8.050;2022-11-15T16:30:44;8.48;;;4.80;;
35276;SDS011;21401;50.878;8.050;2022-11-15T16:33:10;8.38;;;4.93;;
35276;SDS011;21401;50.878;8.050;2022-11-15T16:35:38;8.40;;;4.38;;
35276;SDS011;21401;50.878;8.050;2022-11-15T16:38:03;6.72;;;4.90;;
35276;SDS011;21401;50.878;8.050;2022-11-15T16:40:33;7.47;;;5.65;;
35276;SDS011;21401;50.878;8.050;2022-11-15T16:43:00;7.20;;;5.03;;
35276;SDS011;21401;50.878;8.050;2022-11-15T16:45:27;6.78;;;5.50;;
35276;SDS011;21401;50.878;8.050;2022-11-15T16:47:53;10.52;;;5.65;;
35276;SDS011;21401;50.878;8.050;2022-11-15T16:52:55;8.93;;;6.13;;
35276;SDS011;21401;50.878;8.050;2022-11-15T16:55:22;14.68;;;7.00;;
35276;SDS011;21401;50.878;8.050;2022-11-15T16:57:49;9.15;;;6.10;;
35276;SDS011;21401;50.878;8.050;2022-11-15T17:00:18;14.35;;;6.13;;
35276;SDS011;21401;50.878;8.050;2022-11-15T17:02:46;10.65;;;6.45;;
35276;SDS011;21401;50.878;8.050;2022-11-15T17:05:14;13.00;;;6.50;;
35276;SDS011;21401;50.878;8.050;2022-11-15T17:07:41;10.20;;;6.32;;
35276;SDS011;21401;50.878;8.050;2022-11-15T17:10:08;9.40;;;6.38;;
35276;SDS011;21401;50.878;8.050;2022-11-15T17:12:35;8.52;;;6.25;;
35276;SDS011;21401;50.878;8.050;2022-11-15T17:15:01;16.13;;;6.80;;